createdAt,value
2019-02-22T00:00:52.636Z,10.20
2019-02-22T00:03:22.093Z,10.20
2019-02-22T00:05:51.467Z,10.10
2019-02-22T00:08:20.761Z,10.10
2019-02-22T00:10:50.314Z,10.10
2019-02-22T00:13:19.597Z,10.20
2019-02-22T00:15:48.905Z,10.10
2019-02-22T00:18:18.585Z,10.10
2019-02-22T00:20:47.946Z,10.00
2019-02-22T00:23:17.614Z,10.10
2019-02-22T00:25:46.917Z,10.10
2019-02-22T00:28:16.272Z,10.10
2019-02-22T00:30:45.570Z,10.10
2019-02-22T00:33:14.880Z,10.10
2019-02-22T00:35:44.217Z,10.00
2019-02-22T00:38:13.581Z,10.10
2019-02-22T00:40:44.654Z,10.00
2019-02-22T00:43:14.245Z,10.00
2019-02-22T00:45:43.589Z,10.00
2019-02-22T00:48:12.878Z,10.00
2019-02-22T00:50:45.162Z,10.00
2019-02-22T00:53:14.468Z,10.00
2019-02-22T00:55:43.785Z,10.00
2019-02-22T00:58:13.118Z,10.10
2019-02-22T01:00:42.723Z,10.10
2019-02-22T01:03:12.141Z,10.00
2019-02-22T01:05:41.433Z,10.00
2019-02-22T01:08:10.765Z,9.80
2019-02-22T01:10:40.036Z,9.80
2019-02-22T01:13:09.320Z,9.90
2019-02-22T01:15:38.937Z,9.90
2019-02-22T01:18:08.205Z,10.00
2019-02-22T01:20:37.626Z,9.90
2019-02-22T01:23:06.939Z,9.90
2019-02-22T01:25:41.630Z,10.00
2019-02-22T01:28:11.015Z,9.90
2019-02-22T01:30:40.354Z,9.90
2019-02-22T01:33:09.658Z,9.90
2019-02-22T01:35:39.272Z,9.90
2019-02-22T01:38:08.644Z,9.90
2019-02-22T01:40:43.812Z,10.00
2019-02-22T01:43:08.945Z,9.90
2019-02-22T01:45:38.244Z,9.90
2019-02-22T01:48:07.535Z,9.90
2019-02-22T01:50:37.154Z,9.90
2019-02-22T01:53:06.428Z,9.90
2019-02-22T01:55:35.751Z,9.90
2019-02-22T01:58:05.066Z,9.90
2019-02-22T02:00:34.540Z,9.90
2019-02-22T02:03:03.922Z,9.90
2019-02-22T02:05:33.230Z,9.90
2019-02-22T02:08:02.559Z,9.90
2019-02-22T02:10:31.878Z,9.90
2019-02-22T02:13:01.429Z,9.80
2019-02-22T02:15:30.733Z,9.80
2019-02-22T02:18:00.025Z,9.80
2019-02-22T02:20:29.719Z,9.80
2019-02-22T02:22:59.099Z,9.80
2019-02-22T02:25:28.410Z,9.90
2019-02-22T02:27:57.970Z,9.80
2019-02-22T02:30:27.293Z,9.80
2019-02-22T02:32:56.625Z,9.80
2019-02-22T02:35:26.057Z,9.80
2019-02-22T02:37:55.374Z,9.70
2019-02-22T02:40:24.726Z,9.80
2019-02-22T02:42:54.373Z,9.80
2019-02-22T02:45:23.719Z,9.70
2019-02-22T02:47:53.061Z,9.80
2019-02-22T02:50:22.372Z,9.80
2019-02-22T02:52:51.663Z,9.80
2019-02-22T02:55:31.558Z,9.80
2019-02-22T02:58:00.834Z,9.80
2019-02-22T03:00:30.107Z,9.70
2019-02-22T03:02:59.653Z,9.70
2019-02-22T03:05:56.566Z,9.50
2019-02-22T03:08:28.988Z,9.50
2019-02-22T03:10:58.585Z,9.50
2019-02-22T03:13:27.960Z,9.50
2019-02-22T03:15:57.490Z,9.40
2019-02-22T03:18:27.002Z,9.20
2019-02-22T03:20:56.261Z,9.30
2019-02-22T03:23:25.552Z,9.20
2019-02-22T03:25:54.832Z,9.30
2019-02-22T03:28:24.441Z,9.30
2019-02-22T03:30:53.715Z,9.20
2019-02-22T03:33:23.029Z,9.20
2019-02-22T03:35:52.408Z,9.20
2019-02-22T03:38:21.697Z,9.30
2019-02-22T03:40:50.992Z,9.30
2019-02-22T03:43:20.262Z,9.20
2019-02-22T03:45:49.900Z,9.20
2019-02-22T03:48:19.228Z,9.30
2019-02-22T03:50:48.718Z,9.30
2019-02-22T03:53:42.698Z,9.40
2019-02-22T03:56:14.542Z,9.30
2019-02-22T03:58:45.648Z,9.40
2019-02-22T04:01:14.945Z,9.20
2019-02-22T04:03:44.237Z,9.10
2019-02-22T04:06:13.615Z,9.20
2019-02-22T04:08:43.148Z,9.10
2019-02-22T04:11:12.479Z,9.10
2019-02-22T04:13:41.745Z,9.00
2019-02-22T04:16:11.084Z,9.00
2019-02-22T04:18:40.431Z,8.90
2019-02-22T04:21:09.763Z,8.90
2019-02-22T04:23:39.057Z,8.90
2019-02-22T04:26:08.361Z,8.90
2019-02-22T04:28:37.634Z,8.90
2019-02-22T04:31:06.958Z,8.90
2019-02-22T04:33:36.297Z,8.90
2019-02-22T04:36:06.303Z,8.90
2019-02-22T04:38:35.910Z,8.80
2019-02-22T04:41:05.261Z,8.90
2019-02-22T04:47:14.837Z,8.80
2019-02-22T04:49:44.178Z,8.70
2019-02-22T04:52:13.485Z,8.70
2019-02-22T04:54:43.083Z,8.70
2019-02-22T04:57:12.372Z,8.80
2019-02-22T04:59:41.711Z,8.90
2019-02-22T05:02:11.000Z,9.00
2019-02-22T05:04:40.258Z,9.00
2019-02-22T05:07:09.538Z,9.00
2019-02-22T05:09:39.062Z,8.90
2019-02-22T05:12:11.124Z,9.00
2019-02-22T05:14:39.344Z,8.80
2019-02-22T05:17:08.996Z,8.80
2019-02-22T05:19:38.364Z,8.70
2019-02-22T05:22:07.749Z,8.70
2019-02-22T05:24:37.116Z,8.60
2019-02-22T05:27:06.469Z,8.70
2019-02-22T05:29:36.019Z,8.70
2019-02-22T05:32:05.287Z,8.70
2019-02-22T05:34:34.544Z,8.60
2019-02-22T05:37:03.942Z,8.50
2019-02-22T05:39:34.262Z,8.50
2019-02-22T05:42:03.552Z,8.50
2019-02-22T05:44:32.811Z,8.40
2019-02-22T05:47:02.663Z,8.30
2019-02-22T05:49:31.977Z,8.30
2019-02-22T05:52:01.590Z,8.30
2019-02-22T05:54:30.916Z,8.40
2019-02-22T05:57:00.318Z,8.40
2019-02-22T05:59:29.610Z,8.40
2019-02-22T06:01:58.876Z,8.50
2019-02-22T06:04:28.169Z,8.50
2019-02-22T06:06:57.518Z,8.30
2019-02-22T06:09:26.801Z,8.40
2019-02-22T06:11:56.082Z,8.30
2019-02-22T06:14:25.356Z,8.40
2019-02-22T06:16:54.655Z,8.40
2019-02-22T06:19:24.211Z,8.40
2019-02-22T06:21:53.570Z,8.50
2019-02-22T06:24:22.898Z,8.60
2019-02-22T06:26:52.471Z,8.60
2019-02-22T06:29:21.962Z,8.50
2019-02-22T06:31:51.365Z,8.50
2019-02-22T06:34:21.066Z,8.50
2019-02-22T06:37:01.177Z,8.50
2019-02-22T06:39:21.429Z,8.50
2019-02-22T06:41:50.766Z,8.50
2019-02-22T06:44:20.138Z,8.60
2019-02-22T06:46:49.416Z,8.50
2019-02-22T06:49:18.694Z,8.50
2019-02-22T06:51:48.029Z,8.40
2019-02-22T06:54:17.307Z,8.50
2019-02-22T06:56:47.050Z,8.60
2019-02-22T06:59:16.547Z,8.60
2019-02-22T07:01:46.000Z,8.60
2019-02-22T07:04:15.321Z,8.70
2019-02-22T07:06:44.649Z,8.60
2019-02-22T07:09:13.943Z,8.60
2019-02-22T07:11:50.877Z,8.50
2019-02-22T07:14:20.186Z,8.50
2019-02-22T07:16:49.494Z,8.60
2019-02-22T07:19:18.761Z,8.60
2019-02-22T07:21:52.835Z,8.70
2019-02-22T07:24:19.322Z,8.70
2019-02-22T07:26:48.724Z,8.70
2019-02-22T07:29:18.007Z,8.80
2019-02-22T07:31:47.346Z,8.80
2019-02-22T07:34:16.633Z,8.90
2019-02-22T07:36:45.942Z,8.90
2019-02-22T07:39:27.061Z,8.90
2019-02-22T07:41:47.654Z,8.90
2019-02-22T07:44:16.947Z,8.90
2019-02-22T07:46:47.018Z,9.00
2019-02-22T07:49:25.849Z,9.00
2019-02-22T07:51:55.136Z,9.00
2019-02-22T07:54:24.443Z,9.00
2019-02-22T07:56:53.822Z,9.10
2019-02-22T07:59:23.208Z,9.00
2019-02-22T08:01:52.561Z,8.90
2019-02-22T08:04:21.887Z,8.70
2019-02-22T08:06:51.173Z,8.70
2019-02-22T08:09:20.541Z,8.70
2019-02-22T08:11:49.822Z,8.70
2019-02-22T08:14:19.135Z,8.70
2019-02-22T08:16:48.397Z,8.50
2019-02-22T08:19:17.957Z,8.50
2019-02-22T08:21:47.255Z,8.50
2019-02-22T08:24:16.644Z,8.60
2019-02-22T08:26:45.957Z,8.60
2019-02-22T08:29:15.289Z,8.70
2019-02-22T08:31:44.687Z,8.60
2019-02-22T08:34:13.981Z,8.60
2019-02-22T08:36:43.366Z,8.60
2019-02-22T08:39:12.655Z,8.60
2019-02-22T08:41:42.301Z,8.60
2019-02-22T08:44:11.604Z,8.60
2019-02-22T08:46:40.878Z,8.50
2019-02-22T08:49:10.443Z,8.50
2019-02-22T08:51:39.748Z,8.50
2019-02-22T08:54:09.063Z,8.40
2019-02-22T08:56:38.645Z,8.50
2019-02-22T08:59:07.933Z,8.50
2019-02-22T09:01:37.653Z,8.50
2019-02-22T09:04:07.355Z,8.50
2019-02-22T09:06:36.960Z,8.50
2019-02-22T09:09:06.401Z,8.40
2019-02-22T09:11:35.847Z,8.40
2019-02-22T09:14:05.133Z,8.50
2019-02-22T09:16:34.450Z,8.50
2019-02-22T09:19:03.970Z,8.40
2019-02-22T09:21:33.350Z,8.40
2019-02-22T09:24:02.973Z,8.40
2019-02-22T09:26:32.350Z,8.40
2019-02-22T09:29:01.689Z,8.40
2019-02-22T09:31:31.017Z,8.40
2019-02-22T09:34:00.304Z,8.40
2019-02-22T09:36:29.652Z,8.40
2019-02-22T09:38:59.088Z,8.40
2019-02-22T09:41:28.452Z,8.50
2019-02-22T09:43:57.749Z,8.50
2019-02-22T09:46:27.039Z,8.60
2019-02-22T09:48:58.687Z,8.40
2019-02-22T09:51:28.036Z,8.40
2019-02-22T09:53:57.324Z,8.40
2019-02-22T09:56:26.597Z,8.50
2019-02-22T09:58:55.908Z,8.60
2019-02-22T10:01:25.188Z,8.60
2019-02-22T10:03:54.549Z,8.60
2019-02-22T10:06:23.906Z,8.60
2019-02-22T10:08:53.189Z,8.70
2019-02-22T10:11:22.474Z,8.70
2019-02-22T10:13:51.853Z,8.80
2019-02-22T10:16:21.133Z,8.80
2019-02-22T10:18:50.432Z,9.00
2019-02-22T10:21:19.780Z,8.90
2019-02-22T10:23:49.379Z,8.80
2019-02-22T10:26:18.635Z,9.00
2019-02-22T10:28:48.219Z,8.90
2019-02-22T10:31:17.511Z,8.80
2019-02-22T10:33:47.097Z,8.80
2019-02-22T10:36:16.383Z,8.70
2019-02-22T10:38:46.181Z,8.70
2019-02-22T10:41:15.763Z,8.80
2019-02-22T10:43:45.063Z,8.70
2019-02-22T10:46:14.333Z,8.70
2019-02-22T10:48:43.901Z,8.70
2019-02-22T10:51:13.187Z,8.80
2019-02-22T10:53:42.479Z,8.90
2019-02-22T10:56:11.789Z,8.90
2019-02-22T10:58:41.079Z,9.10
2019-02-22T11:01:10.553Z,9.00
2019-02-22T11:03:39.890Z,9.20
2019-02-22T11:06:09.218Z,9.20
2019-02-22T11:08:38.761Z,9.40
2019-02-22T11:11:08.102Z,9.20
2019-02-22T11:13:37.400Z,9.30
2019-02-22T11:16:07.065Z,9.40
2019-02-22T11:18:36.352Z,9.20
2019-02-22T11:21:05.638Z,9.10
2019-02-22T11:23:34.997Z,9.00
2019-02-22T11:26:04.309Z,9.00
2019-02-22T11:28:33.594Z,9.00
2019-02-22T11:31:03.249Z,9.10
2019-02-22T11:33:32.546Z,9.10
2019-02-22T11:36:01.852Z,9.20
2019-02-22T11:38:31.237Z,9.20
2019-02-22T11:41:00.549Z,9.10
2019-02-22T11:43:29.866Z,9.20
2019-02-22T11:45:59.147Z,9.40
2019-02-22T11:48:28.509Z,9.50
2019-02-22T11:50:57.798Z,9.40
2019-02-22T11:53:27.190Z,9.30
2019-02-22T11:55:56.558Z,9.20
2019-02-22T11:58:25.879Z,9.30
2019-02-22T12:00:55.273Z,9.40
2019-02-22T12:03:25.271Z,9.60
2019-02-22T12:05:54.892Z,9.70
2019-02-22T12:08:25.191Z,9.70
2019-02-22T12:10:54.498Z,9.70
2019-02-22T12:13:24.106Z,9.90
2019-02-22T12:15:53.429Z,9.90
2019-02-22T12:18:22.758Z,9.90
2019-02-22T12:20:52.053Z,9.90
2019-02-22T12:23:21.369Z,9.80
2019-02-22T12:25:50.759Z,9.90
2019-02-22T12:28:20.320Z,10.00
2019-02-22T12:30:49.636Z,10.10
2019-02-22T12:33:19.054Z,10.30
2019-02-22T12:35:48.402Z,10.50
2019-02-22T12:38:19.837Z,11.00
2019-02-22T12:40:49.484Z,11.00
2019-02-22T12:43:18.852Z,11.00
2019-02-22T12:45:48.134Z,11.10
2019-02-22T12:48:17.776Z,11.40
2019-02-22T12:50:47.153Z,11.60
2019-02-22T12:53:16.846Z,11.60
2019-02-22T12:55:46.132Z,11.50
2019-02-22T12:58:15.554Z,11.90
2019-02-22T13:00:46.740Z,12.20
2019-02-22T13:03:16.061Z,12.40
2019-02-22T13:05:45.427Z,12.30
2019-02-22T13:08:14.802Z,12.50
2019-02-22T13:10:44.254Z,12.40
2019-02-22T13:13:13.574Z,12.50
2019-02-22T13:15:42.814Z,12.10
2019-02-22T13:18:12.112Z,12.00
2019-02-22T13:20:41.661Z,12.00
2019-02-22T13:23:11.101Z,12.20
2019-02-22T13:25:40.399Z,11.90
2019-02-22T13:28:09.694Z,11.60
2019-02-22T13:30:39.017Z,11.10
2019-02-22T13:33:08.302Z,11.00
2019-02-22T13:35:37.612Z,10.90
2019-02-22T13:38:06.917Z,11.00
2019-02-22T13:40:36.239Z,10.90
2019-02-22T13:43:05.570Z,10.90
2019-02-22T13:45:35.294Z,11.00
2019-02-22T13:48:04.614Z,11.20
2019-02-22T13:50:34.014Z,11.30
2019-02-22T13:53:03.384Z,11.30
2019-02-22T13:55:32.707Z,11.40
2019-02-22T13:58:02.025Z,11.30
2019-02-22T14:00:31.350Z,11.30
2019-02-22T14:03:05.124Z,11.50
2019-02-22T14:05:38.942Z,11.60
2019-02-22T14:08:12.079Z,11.70
2019-02-22T14:10:43.823Z,11.90
2019-02-22T14:13:15.861Z,11.70
2019-02-22T14:15:45.602Z,11.60
2019-02-22T14:18:14.984Z,11.60
2019-02-22T14:20:44.339Z,11.60
2019-02-22T14:23:13.663Z,11.40
2019-02-22T14:25:44.608Z,11.50
2019-02-22T14:28:14.393Z,11.70
2019-02-22T14:30:43.810Z,11.90
2019-02-22T14:33:13.170Z,12.00
2019-02-22T14:35:44.751Z,11.80
2019-02-22T14:38:14.397Z,12.00
2019-02-22T14:40:46.785Z,12.00
2019-02-22T14:43:17.015Z,12.00
2019-02-22T14:45:50.553Z,11.90
2019-02-22T14:48:18.650Z,12.00
2019-02-22T14:50:47.946Z,12.00
2019-02-22T14:53:19.782Z,12.00
2019-02-22T14:55:48.285Z,11.80
2019-02-22T14:58:17.677Z,11.70
2019-02-22T15:00:47.385Z,11.80
2019-02-22T15:03:17.145Z,11.60
2019-02-22T15:05:46.631Z,11.70
2019-02-22T15:08:16.031Z,11.60
2019-02-22T15:10:45.709Z,11.70
2019-02-22T15:13:16.741Z,11.60
2019-02-22T15:16:05.339Z,11.60
2019-02-22T15:18:35.108Z,11.70
2019-02-22T15:21:04.787Z,11.70
2019-02-22T15:23:34.135Z,11.50
2019-02-22T15:26:03.558Z,11.40
2019-02-22T15:28:32.941Z,11.40
2019-02-22T15:31:02.322Z,11.30
2019-02-22T15:33:32.064Z,11.30
2019-02-22T15:36:01.398Z,11.40
2019-02-22T15:38:30.727Z,11.50
2019-02-22T15:41:00.403Z,11.40
2019-02-22T15:43:30.078Z,11.20
2019-02-22T15:45:59.676Z,11.30
2019-02-22T15:48:29.390Z,11.40
2019-02-22T15:50:58.732Z,11.50
2019-02-22T15:53:28.041Z,11.50
2019-02-22T15:55:57.361Z,11.60
2019-02-22T15:58:26.716Z,11.70
2019-02-22T16:00:56.039Z,11.80
2019-02-22T16:03:26.908Z,11.60
2019-02-22T16:05:56.277Z,11.50
2019-02-22T16:08:25.687Z,11.50
2019-02-22T16:10:55.260Z,11.60
2019-02-22T16:13:25.018Z,11.50
2019-02-22T16:15:54.370Z,11.30
2019-02-22T16:18:23.822Z,11.50
2019-02-22T16:20:53.138Z,11.40
2019-02-22T16:23:22.500Z,11.40
2019-02-22T16:25:51.832Z,11.30
2019-02-22T16:28:21.204Z,11.30
2019-02-22T16:30:50.590Z,11.20
2019-02-22T16:33:20.366Z,11.10
2019-02-22T16:35:51.823Z,11.00
2019-02-22T16:38:21.750Z,10.90
2019-02-22T16:40:51.407Z,10.70
2019-02-22T16:43:20.749Z,10.40
2019-02-22T16:45:50.050Z,10.40
2019-02-22T16:48:19.511Z,10.30
2019-02-22T16:50:48.969Z,10.40
2019-02-22T16:53:18.380Z,10.40
2019-02-22T16:55:47.677Z,10.50
2019-02-22T16:58:19.689Z,10.50
2019-02-22T17:00:49.060Z,10.30
2019-02-22T17:03:19.265Z,10.00
2019-02-22T17:05:51.077Z,9.90
2019-02-22T17:08:21.038Z,9.90
2019-02-22T17:10:51.652Z,9.70
2019-02-22T17:13:21.069Z,9.60
2019-02-22T17:15:50.348Z,9.50
2019-02-22T17:18:19.899Z,9.50
2019-02-22T17:20:49.258Z,9.50
2019-02-22T17:23:19.900Z,9.50
2019-02-22T17:25:49.226Z,9.40
2019-02-22T17:28:18.641Z,9.30
2019-02-22T17:30:48.360Z,9.10
2019-02-22T17:33:17.718Z,9.00
2019-02-22T17:35:47.062Z,8.80
2019-02-22T17:38:16.404Z,8.70
2019-02-22T17:40:45.763Z,8.60
2019-02-22T17:43:15.089Z,8.40
2019-02-22T17:45:44.539Z,8.30
2019-02-22T17:48:18.290Z,8.20
2019-02-22T17:50:48.447Z,8.10
2019-02-22T17:53:17.865Z,8.10
2019-02-22T17:55:47.585Z,8.00
2019-02-22T17:58:24.414Z,8.10
2019-02-22T18:00:48.641Z,8.10
2019-02-22T18:03:17.989Z,8.10
2019-02-22T18:05:47.305Z,8.10
2019-02-22T18:08:22.606Z,8.10
2019-02-22T18:10:53.070Z,8.00
2019-02-22T18:13:22.532Z,7.90
2019-02-22T18:15:51.993Z,7.90
2019-02-22T18:18:22.757Z,7.90
2019-02-22T18:20:52.183Z,7.90
2019-02-22T18:23:21.593Z,7.80
2019-02-22T18:25:50.994Z,7.80
2019-02-22T18:28:20.291Z,7.80
2019-02-22T18:30:50.309Z,7.90
2019-02-22T18:33:19.739Z,8.00
2019-02-22T18:35:49.067Z,8.00
2019-02-22T18:38:19.284Z,8.10
2019-02-22T18:40:48.629Z,8.10
2019-02-22T18:43:18.439Z,8.10
2019-02-22T18:45:48.182Z,8.10
2019-02-22T18:48:17.991Z,8.10
2019-02-22T18:50:47.290Z,8.10
2019-02-22T18:53:16.662Z,8.10
2019-02-22T18:55:50.287Z,8.00
2019-02-22T18:58:17.122Z,8.10
2019-02-22T19:00:46.723Z,8.10
2019-02-22T19:03:16.076Z,8.10
2019-02-22T19:05:45.364Z,8.10
2019-02-22T19:08:14.794Z,8.10
2019-02-22T19:10:44.111Z,8.00
2019-02-22T19:13:13.789Z,7.90
2019-02-22T19:15:43.523Z,7.90
2019-02-22T19:18:12.969Z,7.70
2019-02-22T19:20:42.263Z,7.70
2019-02-22T19:23:12.178Z,7.60
2019-02-22T19:25:41.531Z,7.50
2019-02-22T19:28:10.911Z,7.50
2019-02-22T19:30:40.661Z,7.40
2019-02-22T19:33:10.242Z,7.30
2019-02-22T19:35:39.890Z,7.30
2019-02-22T19:38:09.498Z,7.20
2019-02-22T19:40:38.820Z,7.10
2019-02-22T19:43:08.622Z,7.00
2019-02-22T19:45:37.893Z,7.10
2019-02-22T19:48:07.218Z,7.10
2019-02-22T19:50:41.356Z,7.00
2019-02-22T19:53:07.664Z,6.70
2019-02-22T19:55:36.978Z,6.60
2019-02-22T19:58:06.344Z,6.60
2019-02-22T20:00:35.670Z,6.60
2019-02-22T20:03:05.185Z,6.60
2019-02-22T20:05:34.510Z,6.50
2019-02-22T20:08:03.892Z,6.30
2019-02-22T20:10:34.513Z,6.10
2019-02-22T20:13:05.970Z,6.00
2019-02-22T20:15:35.268Z,6.00
2019-02-22T20:18:06.296Z,6.00
2019-02-22T20:20:35.699Z,6.00
2019-02-22T20:23:05.168Z,5.80
2019-02-22T20:25:34.542Z,5.80
2019-02-22T20:28:03.864Z,5.70
2019-02-22T20:30:33.522Z,5.70
2019-02-22T20:33:03.191Z,5.70
2019-02-22T20:35:32.999Z,5.60
2019-02-22T20:38:02.617Z,5.50
2019-02-22T20:40:32.301Z,5.50
2019-02-22T20:43:01.899Z,5.60
2019-02-22T20:45:31.221Z,5.60
2019-02-22T20:48:05.259Z,5.70
2019-02-22T20:50:31.710Z,5.60
2019-02-22T20:53:00.996Z,5.50
2019-02-22T20:55:30.322Z,5.40
2019-02-22T20:57:59.641Z,5.40
2019-02-22T21:00:29.041Z,5.30
2019-02-22T21:02:58.682Z,5.20
2019-02-22T21:05:28.948Z,5.10
2019-02-22T21:07:58.286Z,5.30
2019-02-22T21:10:27.745Z,5.60
2019-02-22T21:12:57.490Z,5.60
2019-02-22T21:15:26.913Z,5.50
2019-02-22T21:17:56.244Z,5.50
2019-02-22T21:20:25.556Z,5.30
2019-02-22T21:22:54.874Z,5.20
2019-02-22T21:25:24.525Z,5.20
2019-02-22T21:27:53.925Z,5.20
2019-02-22T21:30:23.225Z,5.20
2019-02-22T21:32:52.588Z,5.30
2019-02-22T21:35:21.891Z,5.20
2019-02-22T21:37:51.216Z,5.20
2019-02-22T21:40:20.565Z,5.20
2019-02-22T21:42:50.144Z,5.20
2019-02-22T21:45:19.837Z,5.30
2019-02-22T21:47:54.769Z,5.40
2019-02-22T21:50:20.220Z,5.50
2019-02-22T21:52:49.534Z,5.60
2019-02-22T21:55:18.865Z,5.70
2019-02-22T21:57:48.264Z,5.70
2019-02-22T22:00:18.618Z,5.70
2019-02-22T22:02:48.391Z,5.70
2019-02-22T22:05:18.157Z,5.60
2019-02-22T22:07:47.578Z,5.60
2019-02-22T22:10:16.897Z,5.50
2019-02-22T22:12:46.200Z,5.40
2019-02-22T22:15:15.528Z,5.40
2019-02-22T22:17:44.876Z,5.30
2019-02-22T22:20:14.216Z,5.30
2019-02-22T22:22:43.529Z,5.20
2019-02-22T22:25:12.882Z,5.10
2019-02-22T22:27:42.209Z,5.10
2019-02-22T22:30:13.216Z,5.10
2019-02-22T22:32:42.851Z,5.00
2019-02-22T22:35:12.260Z,4.80
2019-02-22T22:37:41.557Z,4.70
2019-02-22T22:40:11.078Z,4.70
2019-02-22T22:42:40.391Z,4.70
2019-02-22T22:45:10.797Z,4.70
2019-02-22T22:47:40.164Z,4.70
2019-02-22T22:50:10.993Z,4.60
2019-02-22T22:52:40.281Z,4.60
2019-02-22T22:55:09.930Z,4.50
2019-02-22T22:57:39.228Z,4.40
2019-02-22T23:00:20.984Z,4.40
2019-02-22T23:02:50.327Z,4.30
2019-02-22T23:05:19.619Z,4.20
2019-02-22T23:07:48.947Z,4.10
2019-02-22T23:10:18.236Z,4.00
2019-02-22T23:12:47.522Z,4.10
2019-02-22T23:15:16.845Z,4.10
2019-02-22T23:17:46.122Z,4.10
2019-02-22T23:20:15.408Z,4.20
2019-02-22T23:22:45.045Z,4.20
2019-02-22T23:25:14.352Z,4.30
2019-02-22T23:27:43.688Z,4.30
2019-02-22T23:30:13.020Z,4.40
2019-02-22T23:32:42.341Z,4.40
2019-02-22T23:35:11.624Z,4.40
2019-02-22T23:37:41.029Z,4.40
2019-02-22T23:40:10.325Z,4.30
2019-02-22T23:42:39.647Z,4.30
2019-02-22T23:45:09.249Z,4.40
2019-02-22T23:47:38.616Z,4.30
2019-02-22T23:50:08.315Z,4.30
2019-02-22T23:52:37.706Z,4.40
2019-02-22T23:55:07.122Z,4.40
2019-02-22T23:57:36.417Z,4.60
